Terminal Aerodrome Forecast
Issued by NWS

Home | Current Version | Previous Version | Text Only | Print | Product List | Glossary On
Versions: 1 2 3 4 5 6 7 8 9 10 11 12 13 14 15 16 17 18 19 20 21 22
000
FTUS43 KDVN 201730
TAFCID
TAF
KCID 201730Z 2018/2118 05009KT 6SM -RA OVC035
      TEMPO 2018/2021 5SM -RA BR OVC025
     FM202100 04008KT P6SM VCSH OVC025
     FM210000 03006KT P6SM SCT030 BKN050
     FM210600 29004KT P6SM BKN080
     FM211500 28010KT P6SM SCT250=

USA.gov is the U.S. government's official web portal to all federal, state and local government web resources and services.